sensor_id;sensor_type;location;lat;lon;timestamp;temperature;humidity
73792;DHT22;62122;41.112;16.694;2022-07-10T00:02:50;21.33;63.17
73792;DHT22;62122;41.112;16.694;2022-07-10T00:05:55;21.37;63.16
73792;DHT22;62122;41.112;16.694;2022-07-10T00:09:00;21.37;63.23
73792;DHT22;62122;41.112;16.694;2022-07-10T00:12:04;21.31;63.56
73792;DHT22;62122;41.112;16.694;2022-07-10T00:15:09;21.27;63.80
73792;DHT22;62122;41.112;16.694;2022-07-10T00:18:13;21.34;63.61
73792;DHT22;62122;41.112;16.694;2022-07-10T00:21:16;21.34;63.61
73792;DHT22;62122;41.112;16.694;2022-07-10T00:24:20;21.26;63.91
73792;DHT22;62122;41.112;16.694;2022-07-10T00:27:24;21.30;63.92
73792;DHT22;62122;41.112;16.694;2022-07-10T00:30:28;21.28;64.03
73792;DHT22;62122;41.112;16.694;2022-07-10T00:33:32;21.31;64.04
73792;DHT22;62122;41.112;16.694;2022-07-10T00:36:35;21.31;64.12
73792;DHT22;62122;41.112;16.694;2022-07-10T00:39:39;21.31;64.12
73792;DHT22;62122;41.112;16.694;2022-07-10T00:42:43;21.30;64.10
73792;DHT22;62122;41.112;16.694;2022-07-10T00:45:48;21.31;64.19
73792;DHT22;62122;41.112;16.694;2022-07-10T00:48:52;21.34;64.19
73792;DHT22;62122;41.112;16.694;2022-07-10T00:51:57;21.27;64.37
73792;DHT22;62122;41.112;16.694;2022-07-10T00:55:03;21.31;64.30
73792;DHT22;62122;41.112;16.694;2022-07-10T00:58:09;21.27;64.42
73792;DHT22;62122;41.112;16.694;2022-07-10T01:01:14;21.23;64.57
73792;DHT22;62122;41.112;16.694;2022-07-10T01:04:18;21.14;64.63
73792;DHT22;62122;41.112;16.694;2022-07-10T01:07:22;21.13;64.85
73792;DHT22;62122;41.112;16.694;2022-07-10T01:10:26;21.10;64.80
73792;DHT22;62122;41.112;16.694;2022-07-10T01:13:30;21.03;65.06
73792;DHT22;62122;41.112;16.694;2022-07-10T01:16:34;21.13;64.93
73792;DHT22;62122;41.112;16.694;2022-07-10T01:19:38;21.07;65.02
73792;DHT22;62122;41.112;16.694;2022-07-10T01:22:42;21.03;65.17
73792;DHT22;62122;41.112;16.694;2022-07-10T01:25:46;21.00;65.36
73792;DHT22;62122;41.112;16.694;2022-07-10T01:28:51;21.07;65.11
73792;DHT22;62122;41.112;16.694;2022-07-10T01:31:55;21.03;65.31
73792;DHT22;62122;41.112;16.694;2022-07-10T01:35:00;20.97;65.44
73792;DHT22;62122;41.112;16.694;2022-07-10T01:38:04;20.95;65.43
73792;DHT22;62122;41.112;16.694;2022-07-10T01:41:08;20.90;65.48
73792;DHT22;62122;41.112;16.694;2022-07-10T01:44:12;20.93;65.42
73792;DHT22;62122;41.112;16.694;2022-07-10T01:47:15;20.86;65.64
73792;DHT22;62122;41.112;16.694;2022-07-10T01:50:19;20.85;65.71
73792;DHT22;62122;41.112;16.694;2022-07-10T01:53:23;20.78;65.92
73792;DHT22;62122;41.112;16.694;2022-07-10T01:56:27;20.75;65.91
73792;DHT22;62122;41.112;16.694;2022-07-10T01:59:38;20.78;65.87
73792;DHT22;62122;41.112;16.694;2022-07-10T02:02:42;20.78;65.91
73792;DHT22;62122;41.112;16.694;2022-07-10T02:06:07;20.71;66.22
73792;DHT22;62122;41.112;16.694;2022-07-10T02:09:11;20.79;66.01
73792;DHT22;62122;41.112;16.694;2022-07-10T02:12:15;20.72;66.08
73792;DHT22;62122;41.112;16.694;2022-07-10T02:15:19;20.61;66.30
73792;DHT22;62122;41.112;16.694;2022-07-10T02:18:23;20.67;66.24
73792;DHT22;62122;41.112;16.694;2022-07-10T02:21:28;20.61;66.46
73792;DHT22;62122;41.112;16.694;2022-07-10T02:24:31;20.67;66.27
73792;DHT22;62122;41.112;16.694;2022-07-10T02:27:35;20.52;66.66
73792;DHT22;62122;41.112;16.694;2022-07-10T02:30:39;20.58;66.58
73792;DHT22;62122;41.112;16.694;2022-07-10T02:33:43;20.47;66.80
73792;DHT22;62122;41.112;16.694;2022-07-10T02:36:47;20.45;66.98
73792;DHT22;62122;41.112;16.694;2022-07-10T02:39:50;20.44;67.03
73792;DHT22;62122;41.112;16.694;2022-07-10T02:42:54;20.40;67.15
73792;DHT22;62122;41.112;16.694;2022-07-10T02:45:58;20.32;67.35
73792;DHT22;62122;41.112;16.694;2022-07-10T02:49:02;20.32;67.46
73792;DHT22;62122;41.112;16.694;2022-07-10T02:52:07;20.30;67.40
73792;DHT22;62122;41.112;16.694;2022-07-10T02:55:11;20.25;67.34
73792;DHT22;62122;41.112;16.694;2022-07-10T02:58:14;20.28;67.40
73792;DHT22;62122;41.112;16.694;2022-07-10T03:01:19;20.28;67.26
73792;DHT22;62122;41.112;16.694;2022-07-10T03:04:23;20.24;67.18
73792;DHT22;62122;41.112;16.694;2022-07-10T03:07:26;20.25;67.24
73792;DHT22;62122;41.112;16.694;2022-07-10T03:10:30;20.24;67.35
73792;DHT22;62122;41.112;16.694;2022-07-10T03:13:34;20.27;67.21
73792;DHT22;62122;41.112;16.694;2022-07-10T03:16:39;20.28;67.12
73792;DHT22;62122;41.112;16.694;2022-07-10T03:19:55;20.20;67.35
73792;DHT22;62122;41.112;16.694;2022-07-10T03:22:59;20.28;67.08
73792;DHT22;62122;41.112;16.694;2022-07-10T03:26:03;20.25;67.09
73792;DHT22;62122;41.112;16.694;2022-07-10T03:29:07;20.23;67.15
73792;DHT22;62122;41.112;16.694;2022-07-10T03:32:12;20.25;67.11
73792;DHT22;62122;41.112;16.694;2022-07-10T03:35:16;20.23;67.13
73792;DHT22;62122;41.112;16.694;2022-07-10T03:38:20;20.21;67.15
73792;DHT22;62122;41.112;16.694;2022-07-10T03:41:24;20.16;67.03
73792;DHT22;62122;41.112;16.694;2022-07-10T03:44:28;20.16;67.10
73792;DHT22;62122;41.112;16.694;2022-07-10T03:47:32;20.14;66.92
73792;DHT22;62122;41.112;16.694;2022-07-10T03:50:36;20.23;66.76
73792;DHT22;62122;41.112;16.694;2022-07-10T03:53:40;20.24;66.70
73792;DHT22;62122;41.112;16.694;2022-07-10T03:56:44;20.25;66.50
73792;DHT22;62122;41.112;16.694;2022-07-10T04:00:07;20.25;66.47
73792;DHT22;62122;41.112;16.694;2022-07-10T04:03:16;20.28;66.39
73792;DHT22;62122;41.112;16.694;2022-07-10T04:06:20;20.28;66.37
73792;DHT22;62122;41.112;16.694;2022-07-10T04:09:24;20.31;66.29
73792;DHT22;62122;41.112;16.694;2022-07-10T04:12:28;20.38;66.06
73792;DHT22;62122;41.112;16.694;2022-07-10T04:15:32;20.44;66.04
73792;DHT22;62122;41.112;16.694;2022-07-10T04:18:36;20.48;65.97
73792;DHT22;62122;41.112;16.694;2022-07-10T04:21:40;20.47;66.13
73792;DHT22;62122;41.112;16.694;2022-07-10T04:24:44;20.52;66.07
73792;DHT22;62122;41.112;16.694;2022-07-10T04:27:48;20.59;65.86
73792;DHT22;62122;41.112;16.694;2022-07-10T04:30:52;20.68;65.76
73792;DHT22;62122;41.112;16.694;2022-07-10T04:33:56;20.75;65.53
73792;DHT22;62122;41.112;16.694;2022-07-10T04:37:01;20.79;65.48
73792;DHT22;62122;41.112;16.694;2022-07-10T04:40:05;20.86;65.34
73792;DHT22;62122;41.112;16.694;2022-07-10T04:43:09;20.90;65.45
73792;DHT22;62122;41.112;16.694;2022-07-10T04:46:14;20.97;65.26
73792;DHT22;62122;41.112;16.694;2022-07-10T04:49:18;20.96;65.40
73792;DHT22;62122;41.112;16.694;2022-07-10T04:52:22;21.04;65.36
73792;DHT22;62122;41.112;16.694;2022-07-10T04:55:26;21.08;65.24
73792;DHT22;62122;41.112;16.694;2022-07-10T04:58:33;21.19;64.96
73792;DHT22;62122;41.112;16.694;2022-07-10T05:01:37;21.24;64.87
73792;DHT22;62122;41.112;16.694;2022-07-10T05:04:41;21.28;64.85
73792;DHT22;62122;41.112;16.694;2022-07-10T05:07:45;21.40;64.49
73792;DHT22;62122;41.112;16.694;2022-07-10T05:10:49;21.48;64.33
73792;DHT22;62122;41.112;16.694;2022-07-10T05:13:53;21.57;64.06
73792;DHT22;62122;41.112;16.694;2022-07-10T05:16:57;21.59;64.04
73792;DHT22;62122;41.112;16.694;2022-07-10T05:20:01;21.66;63.95
73792;DHT22;62122;41.112;16.694;2022-07-10T05:23:04;21.71;63.79
73792;DHT22;62122;41.112;16.694;2022-07-10T05:26:08;21.82;63.64
73792;DHT22;62122;41.112;16.694;2022-07-10T05:29:13;21.93;63.39
73792;DHT22;62122;41.112;16.694;2022-07-10T05:32:16;22.06;63.17
73792;DHT22;62122;41.112;16.694;2022-07-10T05:35:20;22.14;62.88
73792;DHT22;62122;41.112;16.694;2022-07-10T05:38:24;22.23;62.65
73792;DHT22;62122;41.112;16.694;2022-07-10T05:41:28;22.36;62.28
73792;DHT22;62122;41.112;16.694;2022-07-10T05:44:32;22.33;62.21
73792;DHT22;62122;41.112;16.694;2022-07-10T05:47:36;22.37;62.05
73792;DHT22;62122;41.112;16.694;2022-07-10T05:50:40;22.53;61.69
73792;DHT22;62122;41.112;16.694;2022-07-10T05:53:44;22.50;61.84
73792;DHT22;62122;41.112;16.694;2022-07-10T05:56:48;22.65;61.39
73792;DHT22;62122;41.112;16.694;2022-07-10T05:59:53;22.61;61.47
73792;DHT22;62122;41.112;16.694;2022-07-10T06:02:57;22.71;61.44
73792;DHT22;62122;41.112;16.694;2022-07-10T06:06:03;22.84;61.13
73792;DHT22;62122;41.112;16.694;2022-07-10T06:09:07;22.92;61.13
73792;DHT22;62122;41.112;16.694;2022-07-10T06:12:12;22.92;61.19
73792;DHT22;62122;41.112;16.694;2022-07-10T06:15:17;22.98;61.05
73792;DHT22;62122;41.112;16.694;2022-07-10T06:18:21;23.23;60.55
73792;DHT22;62122;41.112;16.694;2022-07-10T06:21:25;23.22;60.83
73792;DHT22;62122;41.112;16.694;2022-07-10T06:24:29;23.32;60.44
73792;DHT22;62122;41.112;16.694;2022-07-10T06:27:33;23.50;60.25
73792;DHT22;62122;41.112;16.694;2022-07-10T06:30:38;23.71;59.84
73792;DHT22;62122;41.112;16.694;2022-07-10T06:33:42;23.77;59.77
73792;DHT22;62122;41.112;16.694;2022-07-10T06:36:46;24.06;58.79
73792;DHT22;62122;41.112;16.694;2022-07-10T06:39:49;25.14;56.42
73792;DHT22;62122;41.112;16.694;2022-07-10T06:42:53;25.90;53.96
73792;DHT22;62122;41.112;16.694;2022-07-10T06:45:58;27.61;49.86
73792;DHT22;62122;41.112;16.694;2022-07-10T06:49:02;28.23;48.49
73792;DHT22;62122;41.112;16.694;2022-07-10T06:52:08;29.85;45.09
73792;DHT22;62122;41.112;16.694;2022-07-10T06:55:12;30.25;44.63
73792;DHT22;62122;41.112;16.694;2022-07-10T06:58:16;31.38;41.83
73792;DHT22;62122;41.112;16.694;2022-07-10T07:01:19;29.95;44.79
73792;DHT22;62122;41.112;16.694;2022-07-10T07:04:23;30.95;42.62
73792;DHT22;62122;41.112;16.694;2022-07-10T07:07:27;32.59;39.74
73792;DHT22;62122;41.112;16.694;2022-07-10T07:10:31;30.40;43.32
73792;DHT22;62122;41.112;16.694;2022-07-10T07:13:35;30.43;43.56
73792;DHT22;62122;41.112;16.694;2022-07-10T07:16:39;31.18;41.80
73792;DHT22;62122;41.112;16.694;2022-07-10T07:19:49;29.51;44.79
73792;DHT22;62122;41.112;16.694;2022-07-10T07:23:12;29.81;44.72
73792;DHT22;62122;41.112;16.694;2022-07-10T07:26:16;29.58;44.22
73792;DHT22;62122;41.112;16.694;2022-07-10T07:29:20;30.78;42.25
73792;DHT22;62122;41.112;16.694;2022-07-10T07:32:24;29.81;44.46
73792;DHT22;62122;41.112;16.694;2022-07-10T07:35:28;30.55;42.93
73792;DHT22;62122;41.112;16.694;2022-07-10T07:38:32;29.73;44.71
73792;DHT22;62122;41.112;16.694;2022-07-10T07:41:36;30.57;43.55
73792;DHT22;62122;41.112;16.694;2022-07-10T07:44:40;29.65;44.77
73792;DHT22;62122;41.112;16.694;2022-07-10T07:47:54;30.08;43.51
73792;DHT22;62122;41.112;16.694;2022-07-10T07:51:01;29.68;44.48
73792;DHT22;62122;41.112;16.694;2022-07-10T07:54:04;27.93;48.72
73792;DHT22;62122;41.112;16.694;2022-07-10T07:57:08;29.47;45.91
73792;DHT22;62122;41.112;16.694;2022-07-10T08:00:13;29.81;44.51
73792;DHT22;62122;41.112;16.694;2022-07-10T08:03:21;29.71;43.33
73792;DHT22;62122;41.112;16.694;2022-07-10T08:06:24;30.16;42.74
73792;DHT22;62122;41.112;16.694;2022-07-10T08:09:28;29.02;45.02
73792;DHT22;62122;41.112;16.694;2022-07-10T08:12:33;28.76;45.19
73792;DHT22;62122;41.112;16.694;2022-07-10T08:15:37;30.53;41.94
73792;DHT22;62122;41.112;16.694;2022-07-10T08:18:40;30.11;43.80
73792;DHT22;62122;41.112;16.694;2022-07-10T08:21:44;29.64;42.77
73792;DHT22;62122;41.112;16.694;2022-07-10T08:24:48;29.15;42.86
73792;DHT22;62122;41.112;16.694;2022-07-10T08:27:53;29.38;41.14
73792;DHT22;62122;41.112;16.694;2022-07-10T08:30:57;28.58;44.13
73792;DHT22;62122;41.112;16.694;2022-07-10T08:34:01;28.60;42.11
73792;DHT22;62122;41.112;16.694;2022-07-10T08:37:05;28.74;43.02
73792;DHT22;62122;41.112;16.694;2022-07-10T08:40:35;29.13;41.71
73792;DHT22;62122;41.112;16.694;2022-07-10T08:43:40;29.10;42.29
73792;DHT22;62122;41.112;16.694;2022-07-10T08:46:44;28.02;42.72
73792;DHT22;62122;41.112;16.694;2022-07-10T08:49:48;28.47;42.97
73792;DHT22;62122;41.112;16.694;2022-07-10T08:56:34;29.17;41.21
73792;DHT22;62122;41.112;16.694;2022-07-10T08:59:38;29.05;41.68
73792;DHT22;62122;41.112;16.694;2022-07-10T09:02:42;28.61;40.85
73792;DHT22;62122;41.112;16.694;2022-07-10T09:05:46;29.38;39.21
73792;DHT22;62122;41.112;16.694;2022-07-10T09:09:07;29.08;40.39
73792;DHT22;62122;41.112;16.694;2022-07-10T09:12:11;28.67;41.06
73792;DHT22;62122;41.112;16.694;2022-07-10T09:15:17;29.34;40.84
73792;DHT22;62122;41.112;16.694;2022-07-10T09:18:23;30.11;40.00
73792;DHT22;62122;41.112;16.694;2022-07-10T09:21:32;28.87;42.02
73792;DHT22;62122;41.112;16.694;2022-07-10T09:24:38;28.34;43.86
73792;DHT22;62122;41.112;16.694;2022-07-10T09:27:52;27.72;45.08
73792;DHT22;62122;41.112;16.694;2022-07-10T09:31:00;26.25;48.81
73792;DHT22;62122;41.112;16.694;2022-07-10T09:34:04;26.22;48.84
73792;DHT22;62122;41.112;16.694;2022-07-10T09:40:27;26.52;48.84
73792;DHT22;62122;41.112;16.694;2022-07-10T09:44:03;25.86;50.67
73792;DHT22;62122;41.112;16.694;2022-07-10T09:47:21;25.77;51.27
73792;DHT22;62122;41.112;16.694;2022-07-10T09:50:35;25.62;51.65
73792;DHT22;62122;41.112;16.694;2022-07-10T09:53:42;25.46;51.21
73792;DHT22;62122;41.112;16.694;2022-07-10T09:56:48;25.93;50.48
73792;DHT22;62122;41.112;16.694;2022-07-10T09:59:55;25.82;49.83
73792;DHT22;62122;41.112;16.694;2022-07-10T10:03:04;26.13;48.82
73792;DHT22;62122;41.112;16.694;2022-07-10T10:06:14;25.87;48.19
73792;DHT22;62122;41.112;16.694;2022-07-10T10:09:24;26.11;47.91
73792;DHT22;62122;41.112;16.694;2022-07-10T10:12:44;26.10;45.62
73792;DHT22;62122;41.112;16.694;2022-07-10T10:15:52;26.13;46.14
73792;DHT22;62122;41.112;16.694;2022-07-10T10:18:56;25.96;45.23
73792;DHT22;62122;41.112;16.694;2022-07-10T10:22:19;26.28;45.66
73792;DHT22;62122;41.112;16.694;2022-07-10T10:25:24;26.25;45.26
73792;DHT22;62122;41.112;16.694;2022-07-10T10:28:28;26.21;44.98
73792;DHT22;62122;41.112;16.694;2022-07-10T10:31:37;26.27;45.25
73792;DHT22;62122;41.112;16.694;2022-07-10T10:34:49;26.28;45.32
73792;DHT22;62122;41.112;16.694;2022-07-10T10:38:02;26.04;46.36
73792;DHT22;62122;41.112;16.694;2022-07-10T10:44:23;26.35;43.72
73792;DHT22;62122;41.112;16.694;2022-07-10T10:51:12;26.53;41.87
73792;DHT22;62122;41.112;16.694;2022-07-10T10:54:16;26.56;43.32
73792;DHT22;62122;41.112;16.694;2022-07-10T10:57:21;26.18;41.78
73792;DHT22;62122;41.112;16.694;2022-07-10T11:00:32;26.22;42.17
73792;DHT22;62122;41.112;16.694;2022-07-10T11:03:40;26.24;39.78
73792;DHT22;62122;41.112;16.694;2022-07-10T11:06:54;26.35;42.98
73792;DHT22;62122;41.112;16.694;2022-07-10T11:10:33;26.37;41.62
73792;DHT22;62122;41.112;16.694;2022-07-10T11:13:38;26.27;44.01
73792;DHT22;62122;41.112;16.694;2022-07-10T11:16:45;26.58;44.12
73792;DHT22;62122;41.112;16.694;2022-07-10T11:19:52;26.47;42.49
73792;DHT22;62122;41.112;16.694;2022-07-10T11:27:06;26.34;42.52
73792;DHT22;62122;41.112;16.694;2022-07-10T11:30:13;26.37;41.57
73792;DHT22;62122;41.112;16.694;2022-07-10T11:33:17;26.35;36.79
73792;DHT22;62122;41.112;16.694;2022-07-10T11:36:28;26.42;40.94
73792;DHT22;62122;41.112;16.694;2022-07-10T11:40:08;26.00;41.40
73792;DHT22;62122;41.112;16.694;2022-07-10T11:43:12;26.25;40.92
73792;DHT22;62122;41.112;16.694;2022-07-10T11:46:22;26.28;40.33
73792;DHT22;62122;41.112;16.694;2022-07-10T11:49:27;26.45;41.51
73792;DHT22;62122;41.112;16.694;2022-07-10T11:52:35;26.90;41.54
73792;DHT22;62122;41.112;16.694;2022-07-10T11:55:40;26.68;41.82
73792;DHT22;62122;41.112;16.694;2022-07-10T11:58:53;26.59;41.73
73792;DHT22;62122;41.112;16.694;2022-07-10T12:01:57;26.32;42.86
73792;DHT22;62122;41.112;16.694;2022-07-10T12:05:03;26.38;42.82
73792;DHT22;62122;41.112;16.694;2022-07-10T12:08:08;26.79;42.26
73792;DHT22;62122;41.112;16.694;2022-07-10T12:11:16;27.21;41.21
73792;DHT22;62122;41.112;16.694;2022-07-10T12:14:22;27.11;41.45
73792;DHT22;62122;41.112;16.694;2022-07-10T12:17:32;26.92;42.54
73792;DHT22;62122;41.112;16.694;2022-07-10T12:20:40;27.06;41.35
73792;DHT22;62122;41.112;16.694;2022-07-10T12:23:49;26.79;43.62
73792;DHT22;62122;41.112;16.694;2022-07-10T12:26:54;27.04;44.63
73792;DHT22;62122;41.112;16.694;2022-07-10T12:30:02;27.04;44.39
73792;DHT22;62122;41.112;16.694;2022-07-10T12:33:10;26.78;44.08
73792;DHT22;62122;41.112;16.694;2022-07-10T12:36:22;26.87;44.29
73792;DHT22;62122;41.112;16.694;2022-07-10T12:39:46;26.80;45.20
73792;DHT22;62122;41.112;16.694;2022-07-10T12:43:01;26.71;44.95
73792;DHT22;62122;41.112;16.694;2022-07-10T12:46:17;26.89;45.55
73792;DHT22;62122;41.112;16.694;2022-07-10T12:49:27;26.80;44.01
73792;DHT22;62122;41.112;16.694;2022-07-10T12:52:32;26.87;43.37
73792;DHT22;62122;41.112;16.694;2022-07-10T12:55:38;27.02;42.99
73792;DHT22;62122;41.112;16.694;2022-07-10T12:58:46;26.97;43.52
73792;DHT22;62122;41.112;16.694;2022-07-10T13:01:50;26.85;43.10
73792;DHT22;62122;41.112;16.694;2022-07-10T13:04:56;26.71;44.61
73792;DHT22;62122;41.112;16.694;2022-07-10T13:11:14;27.10;43.37
73792;DHT22;62122;41.112;16.694;2022-07-10T13:14:19;26.80;44.86
73792;DHT22;62122;41.112;16.694;2022-07-10T13:17:23;26.66;44.70
73792;DHT22;62122;41.112;16.694;2022-07-10T13:20:27;26.62;45.78
73792;DHT22;62122;41.112;16.694;2022-07-10T13:23:30;27.04;45.59
73792;DHT22;62122;41.112;16.694;2022-07-10T13:26:34;27.45;43.87
73792;DHT22;62122;41.112;16.694;2022-07-10T13:29:38;27.40;44.72
73792;DHT22;62122;41.112;16.694;2022-07-10T13:32:42;27.23;42.06
73792;DHT22;62122;41.112;16.694;2022-07-10T13:35:46;27.26;40.27
73792;DHT22;62122;41.112;16.694;2022-07-10T13:38:51;26.96;39.58
73792;DHT22;62122;41.112;16.694;2022-07-10T13:41:55;26.87;35.70
73792;DHT22;62122;41.112;16.694;2022-07-10T13:45:00;26.96;38.76
73792;DHT22;62122;41.112;16.694;2022-07-10T13:48:04;27.30;39.49
73792;DHT22;62122;41.112;16.694;2022-07-10T13:51:09;26.99;43.04
73792;DHT22;62122;41.112;16.694;2022-07-10T13:54:14;26.72;39.03
73792;DHT22;62122;41.112;16.694;2022-07-10T13:57:23;26.99;42.32
73792;DHT22;62122;41.112;16.694;2022-07-10T14:00:29;27.31;39.55
73792;DHT22;62122;41.112;16.694;2022-07-10T14:03:42;27.20;39.19
73792;DHT22;62122;41.112;16.694;2022-07-10T14:06:46;26.80;40.39
73792;DHT22;62122;41.112;16.694;2022-07-10T14:09:50;27.04;41.17
73792;DHT22;62122;41.112;16.694;2022-07-10T14:12:54;27.17;42.31
73792;DHT22;62122;41.112;16.694;2022-07-10T14:15:57;27.34;38.44
73792;DHT22;62122;41.112;16.694;2022-07-10T14:19:01;27.40;39.21
73792;DHT22;62122;41.112;16.694;2022-07-10T14:22:05;27.52;38.97
73792;DHT22;62122;41.112;16.694;2022-07-10T14:25:09;27.20;41.15
73792;DHT22;62122;41.112;16.694;2022-07-10T14:28:13;27.14;40.52
73792;DHT22;62122;41.112;16.694;2022-07-10T14:31:19;27.14;39.58
73792;DHT22;62122;41.112;16.694;2022-07-10T14:34:24;27.08;39.94
73792;DHT22;62122;41.112;16.694;2022-07-10T14:37:28;26.97;40.60
73792;DHT22;62122;41.112;16.694;2022-07-10T14:40:32;27.20;40.42
73792;DHT22;62122;41.112;16.694;2022-07-10T14:43:37;27.31;40.14
73792;DHT22;62122;41.112;16.694;2022-07-10T14:46:41;27.23;38.75
73792;DHT22;62122;41.112;16.694;2022-07-10T14:49:46;27.45;39.88
73792;DHT22;62122;41.112;16.694;2022-07-10T14:52:51;27.18;41.30
73792;DHT22;62122;41.112;16.694;2022-07-10T14:55:56;27.14;40.71
73792;DHT22;62122;41.112;16.694;2022-07-10T14:59:00;26.58;42.97
73792;DHT22;62122;41.112;16.694;2022-07-10T15:02:05;26.35;41.66
73792;DHT22;62122;41.112;16.694;2022-07-10T15:05:11;26.66;41.15
73792;DHT22;62122;41.112;16.694;2022-07-10T15:08:15;26.71;40.05
73792;DHT22;62122;41.112;16.694;2022-07-10T15:11:19;27.00;37.62
73792;DHT22;62122;41.112;16.694;2022-07-10T15:14:26;26.76;39.38
73792;DHT22;62122;41.112;16.694;2022-07-10T15:17:32;26.89;39.43
73792;DHT22;62122;41.112;16.694;2022-07-10T15:20:36;26.60;44.22
73792;DHT22;62122;41.112;16.694;2022-07-10T15:23:40;26.38;43.10
73792;DHT22;62122;41.112;16.694;2022-07-10T15:26:44;26.25;47.72
73792;DHT22;62122;41.112;16.694;2022-07-10T15:29:52;26.31;47.96
73792;DHT22;62122;41.112;16.694;2022-07-10T15:32:57;26.17;45.71
73792;DHT22;62122;41.112;16.694;2022-07-10T15:36:01;26.13;44.71
73792;DHT22;62122;41.112;16.694;2022-07-10T15:39:06;25.97;46.73
73792;DHT22;62122;41.112;16.694;2022-07-10T15:42:11;26.00;47.76
73792;DHT22;62122;41.112;16.694;2022-07-10T15:45:15;26.37;45.64
73792;DHT22;62122;41.112;16.694;2022-07-10T15:48:18;26.34;46.80
73792;DHT22;62122;41.112;16.694;2022-07-10T15:51:23;26.21;44.31
73792;DHT22;62122;41.112;16.694;2022-07-10T15:54:27;26.55;43.82
73792;DHT22;62122;41.112;16.694;2022-07-10T15:57:32;26.56;42.17
73792;DHT22;62122;41.112;16.694;2022-07-10T16:00:36;26.37;39.90
73792;DHT22;62122;41.112;16.694;2022-07-10T16:03:40;26.44;40.06
73792;DHT22;62122;41.112;16.694;2022-07-10T16:06:45;26.28;44.62
73792;DHT22;62122;41.112;16.694;2022-07-10T16:09:49;26.37;46.14
73792;DHT22;62122;41.112;16.694;2022-07-10T16:12:53;26.34;45.57
73792;DHT22;62122;41.112;16.694;2022-07-10T16:15:57;26.16;43.35
73792;DHT22;62122;41.112;16.694;2022-07-10T16:19:03;25.97;42.18
73792;DHT22;62122;41.112;16.694;2022-07-10T16:22:07;25.86;44.63
73792;DHT22;62122;41.112;16.694;2022-07-10T16:25:11;26.14;45.46
73792;DHT22;62122;41.112;16.694;2022-07-10T16:28:37;26.24;44.11
73792;DHT22;62122;41.112;16.694;2022-07-10T16:31:41;26.17;41.96
73792;DHT22;62122;41.112;16.694;2022-07-10T16:34:51;26.37;43.48
73792;DHT22;62122;41.112;16.694;2022-07-10T16:38:09;26.14;45.97
73792;DHT22;62122;41.112;16.694;2022-07-10T16:41:27;26.10;45.98
73792;DHT22;62122;41.112;16.694;2022-07-10T16:44:31;26.02;44.71
73792;DHT22;62122;41.112;16.694;2022-07-10T16:47:35;25.91;43.48
73792;DHT22;62122;41.112;16.694;2022-07-10T16:50:39;25.79;43.35
73792;DHT22;62122;41.112;16.694;2022-07-10T16:53:44;25.61;43.26
73792;DHT22;62122;41.112;16.694;2022-07-10T16:56:48;25.69;42.63
73792;DHT22;62122;41.112;16.694;2022-07-10T16:59:52;25.63;42.29
73792;DHT22;62122;41.112;16.694;2022-07-10T17:02:56;25.65;43.59
73792;DHT22;62122;41.112;16.694;2022-07-10T17:06:00;25.58;43.20
73792;DHT22;62122;41.112;16.694;2022-07-10T17:09:04;25.58;42.15
73792;DHT22;62122;41.112;16.694;2022-07-10T17:12:08;25.49;42.60
73792;DHT22;62122;41.112;16.694;2022-07-10T17:15:12;25.56;42.93
73792;DHT22;62122;41.112;16.694;2022-07-10T17:18:16;25.79;42.48
73792;DHT22;62122;41.112;16.694;2022-07-10T17:21:22;25.70;41.84
73792;DHT22;62122;41.112;16.694;2022-07-10T17:24:32;25.59;42.37
73792;DHT22;62122;41.112;16.694;2022-07-10T17:27:36;25.59;43.02
73792;DHT22;62122;41.112;16.694;2022-07-10T17:30:41;25.63;43.60
73792;DHT22;62122;41.112;16.694;2022-07-10T17:33:45;25.42;45.41
73792;DHT22;62122;41.112;16.694;2022-07-10T17:36:49;25.41;45.79
73792;DHT22;62122;41.112;16.694;2022-07-10T17:39:53;25.34;47.28
73792;DHT22;62122;41.112;16.694;2022-07-10T17:42:57;25.32;47.58
73792;DHT22;62122;41.112;16.694;2022-07-10T17:46:02;25.28;48.41
73792;DHT22;62122;41.112;16.694;2022-07-10T17:49:08;25.17;49.74
73792;DHT22;62122;41.112;16.694;2022-07-10T17:52:12;25.10;49.10
73792;DHT22;62122;41.112;16.694;2022-07-10T17:55:16;25.10;49.18
73792;DHT22;62122;41.112;16.694;2022-07-10T17:58:20;25.06;49.62
73792;DHT22;62122;41.112;16.694;2022-07-10T18:01:25;24.95;50.35
73792;DHT22;62122;41.112;16.694;2022-07-10T18:04:29;24.84;51.04
73792;DHT22;62122;41.112;16.694;2022-07-10T18:07:33;24.84;49.50
73792;DHT22;62122;41.112;16.694;2022-07-10T18:10:40;24.76;47.87
73792;DHT22;62122;41.112;16.694;2022-07-10T18:13:45;24.67;49.38
73792;DHT22;62122;41.112;16.694;2022-07-10T18:16:49;24.67;50.17
73792;DHT22;62122;41.112;16.694;2022-07-10T18:19:53;24.63;50.55
73792;DHT22;62122;41.112;16.694;2022-07-10T18:23:02;24.55;51.70
73792;DHT22;62122;41.112;16.694;2022-07-10T18:26:08;24.50;52.38
73792;DHT22;62122;41.112;16.694;2022-07-10T18:29:12;24.44;52.96
73792;DHT22;62122;41.112;16.694;2022-07-10T18:32:18;24.46;52.54
73792;DHT22;62122;41.112;16.694;2022-07-10T18:35:42;24.43;51.12
73792;DHT22;62122;41.112;16.694;2022-07-10T18:38:46;24.40;50.72
73792;DHT22;62122;41.112;16.694;2022-07-10T18:41:50;24.44;50.33
73792;DHT22;62122;41.112;16.694;2022-07-10T18:44:54;24.46;49.24
73792;DHT22;62122;41.112;16.694;2022-07-10T18:47:58;24.44;49.13
73792;DHT22;62122;41.112;16.694;2022-07-10T18:51:02;24.40;48.06
73792;DHT22;62122;41.112;16.694;2022-07-10T18:54:06;24.49;47.91
73792;DHT22;62122;41.112;16.694;2022-07-10T18:57:10;24.49;46.36
73792;DHT22;62122;41.112;16.694;2022-07-10T19:00:15;24.52;44.81
73792;DHT22;62122;41.112;16.694;2022-07-10T19:03:20;24.55;44.78
73792;DHT22;62122;41.112;16.694;2022-07-10T19:06:24;24.52;44.73
73792;DHT22;62122;41.112;16.694;2022-07-10T19:09:27;24.48;45.23
73792;DHT22;62122;41.112;16.694;2022-07-10T19:12:32;24.44;46.02
73792;DHT22;62122;41.112;16.694;2022-07-10T19:15:38;24.40;46.76
73792;DHT22;62122;41.112;16.694;2022-07-10T19:18:43;24.36;47.35
73792;DHT22;62122;41.112;16.694;2022-07-10T19:21:49;24.33;47.78
73792;DHT22;62122;41.112;16.694;2022-07-10T19:24:53;24.30;48.53
73792;DHT22;62122;41.112;16.694;2022-07-10T19:27:57;24.30;49.14
73792;DHT22;62122;41.112;16.694;2022-07-10T19:31:01;24.26;50.50
73792;DHT22;62122;41.112;16.694;2022-07-10T19:34:06;24.21;52.13
73792;DHT22;62122;41.112;16.694;2022-07-10T19:37:10;24.19;53.66